Time;durP1;ratioP1;P1;durP2;ratioP2;P2;SDS_P1;SDS_P2;PMS_P1;PMS_P2;Temp;Humidity;BMP_temperature;BMP_pressure;BME280_temperature;BME280_humidity;BME280_pressure;Samples;Min_cycle;Max_cycle;Signal;HPM_P1;HPM_P2
2022/11/27 00:01:50;;;;;;;6.95;4.40;;;;;;;4.52;70.50;101511.16;1713815;82;21576;-69
2022/11/27 00:04:16;;;;;;;6.40;4.62;;;;;;;4.51;70.58;101515.63;1721763;82;21627;-70
2022/11/27 00:06:43;;;;;;;6.70;4.57;;;;;;;4.51;70.58;101518.76;1603512;81;10000010;-69
2022/11/27 00:09:13;;;;;;;6.92;5.12;;;;;;;4.52;70.58;101520.41;1748559;82;20975;-70
2022/11/27 00:11:39;;;;;;;7.00;4.40;;;;;;;4.54;70.65;101523.66;1722982;81;21265;-70
2022/11/27 00:14:11;;;;;;;6.53;4.90;;;;;;;4.54;70.63;101522.34;1738545;82;21003;-70
2022/11/27 00:16:38;;;;;;;7.90;5.10;;;;;;;4.54;70.65;101526.31;1709221;82;21063;-69
2022/11/27 00:19:05;;;;;;;6.85;4.75;;;;;;;4.54;70.70;101519.70;1738592;81;21613;-70
2022/11/27 07:23:31;;;;;;;11.50;6.80;;;;;;;4.33;72.10;101584.05;1730677;81;21553;-79
2022/11/27 07:25:58;;;;;;;11.40;7.40;;;;;;;4.33;72.16;101585.38;1709118;83;20896;-79
2022/11/27 07:28:25;;;;;;;11.35;7.37;;;;;;;4.38;72.14;101590.41;1694307;83;21061;-78
2022/11/27 07:30:56;;;;;;;11.03;6.62;;;;;;;4.41;72.10;101587.90;1724999;83;20965;-79
2022/11/27 07:33:23;;;;;;;9.90;6.30;;;;;;;4.44;72.08;101583.05;1725207;83;21516;-78
2022/11/27 07:35:52;;;;;;;9.20;6.25;;;;;;;4.47;72.06;101587.11;1711166;82;21544;-79
2022/11/27 07:38:18;;;;;;;9.98;6.37;;;;;;;4.52;72.05;101590.52;1724364;83;21074;-79
2022/11/27 07:40:45;;;;;;;8.48;5.50;;;;;;;4.56;71.99;101586.48;1725198;83;21046;-79
2022/11/27 07:43:12;;;;;;;9.73;6.33;;;;;;;4.58;71.91;101592.41;1725122;83;21649;-79
2022/11/27 07:45:40;;;;;;;10.08;6.10;;;;;;;4.58;71.88;101583.95;1700766;83;21062;-79
2022/11/27 07:48:06;;;;;;;9.08;5.85;;;;;;;4.56;71.80;101589.13;1694695;84;21013;-79
2022/11/27 07:50:34;;;;;;;10.32;5.80;;;;;;;4.54;71.84;101591.12;1687622;85;21067;-78
2022/11/27 07:53:01;;;;;;;8.00;5.90;;;;;;;4.57;71.83;101585.45;1694850;83;20950;-78
2022/11/27 07:55:27;;;;;;;9.33;6.45;;;;;;;4.55;71.74;101584.84;1718178;83;21119;-79
2022/11/27 07:57:53;;;;;;;8.48;6.20;;;;;;;4.52;71.68;101587.37;1707964;83;21067;-79
2022/11/27 08:00:21;;;;;;;10.95;6.35;;;;;;;4.53;71.64;101592.15;1718256;83;21447;-78
2022/11/27 08:02:47;;;;;;;10.58;6.80;;;;;;;4.53;71.63;101589.50;1714312;83;21544;-77
2022/11/27 08:05:15;;;;;;;9.15;6.12;;;;;;;4.55;71.62;101590.95;1696657;83;21044;-78
2022/11/27 08:07:42;;;;;;;11.00;6.30;;;;;;;4.55;71.57;101588.31;1717192;83;21825;-79
2022/11/27 08:10:08;;;;;;;8.90;6.12;;;;;;;4.59;71.59;101591.39;1717902;83;21455;-78
2022/11/27 08:12:35;;;;;;;9.00;5.85;;;;;;;4.58;71.54;101592.41;1724968;82;20982;-78
2022/11/27 08:15:05;;;;;;;8.20;5.70;;;;;;;4.58;71.53;101593.73;1718025;83;21032;-79
2022/11/27 08:17:33;;;;;;;9.38;6.12;;;;;;;4.58;71.51;101592.41;1694300;84;21099;-79
2022/11/27 08:20:00;;;;;;;10.63;6.03;;;;;;;4.59;71.48;101592.20;1697540;83;21139;-78
2022/11/27 08:22:26;;;;;;;12.33;5.92;;;;;;;4.60;71.42;101593.02;1717800;83;20956;-79
2022/11/27 08:24:53;;;;;;;9.68;5.90;;;;;;;4.60;71.39;101590.37;1694753;84;21095;-79
2022/11/27 08:27:19;;;;;;;9.78;6.40;;;;;;;4.62;71.37;101597.62;1725052;83;21433;-78
2022/11/27 08:29:46;;;;;;;10.60;6.45;;;;;;;4.61;71.27;101596.00;1717980;83;21066;-79
2022/11/27 08:32:12;;;;;;;10.40;6.55;;;;;;;4.60;71.25;101594.34;1724890;83;21194;-78
2022/11/27 08:34:39;;;;;;;11.28;6.75;;;;;;;4.61;71.23;101594.16;1718018;83;21466;-78
2022/11/27 08:37:06;;;;;;;10.13;6.90;;;;;;;4.57;71.12;101590.75;1725410;82;20997;-78
2022/11/27 08:39:34;;;;;;;11.65;6.95;;;;;;;4.55;71.12;101594.11;1704809;83;20981;-78
2022/11/27 08:42:00;;;;;;;11.90;7.00;;;;;;;4.57;71.19;101589.42;1687539;85;20976;-78
2022/11/27 08:44:27;;;;;;;11.97;7.08;;;;;;;4.60;71.20;101592.50;1694638;83;21504;-79
2022/11/27 08:46:53;;;;;;;10.00;7.15;;;;;;;4.61;71.15;101596.00;1687767;85;21004;-78
2022/11/27 08:49:20;;;;;;;12.63;8.05;;;;;;;4.62;71.14;101594.98;1695880;83;20973;-79
2022/11/27 08:51:48;;;;;;;11.25;7.55;;;;;;;4.63;71.11;101599.25;1717526;83;21035;-79
2022/11/27 08:54:14;;;;;;;10.48;6.97;;;;;;;4.60;71.10;101600.44;1725344;82;20990;-79
2022/11/27 08:56:41;;;;;;;9.75;6.90;;;;;;;4.59;71.11;101597.49;1717787;83;21244;-77
2022/11/27 08:59:09;;;;;;;10.20;7.12;;;;;;;4.59;71.07;101588.73;1694445;83;20930;-79
2022/11/27 09:01:36;;;;;;;10.75;6.53;;;;;;;4.62;71.08;101593.14;1717712;83;21018;-78
2022/11/27 09:04:03;;;;;;;10.32;6.87;;;;;;;4.62;70.97;101591.00;1725042;83;21496;-78
2022/11/27 09:06:32;;;;;;;9.10;6.50;;;;;;;4.59;70.90;101592.20;1717481;83;21024;-78
2022/11/27 09:09:00;;;;;;;12.37;7.35;;;;;;;4.57;70.93;101594.20;1694494;84;21447;-79
2022/11/27 09:11:28;;;;;;;10.20;6.60;;;;;;;4.68;70.72;101591.56;1704038;83;21007;-79
2022/11/27 09:13:54;;;;;;;12.93;7.33;;;;;;;4.62;70.83;101592.33;1725293;82;21535;-79
2022/11/27 09:16:21;;;;;;;11.48;6.85;;;;;;;4.60;70.85;101583.24;1724375;82;21002;-78
2022/11/27 09:18:50;;;;;;;10.13;6.78;;;;;;;4.63;70.88;101584.70;1718069;83;21019;-78
2022/11/27 09:21:20;;;;;;;11.55;6.62;;;;;;;4.61;70.83;101580.93;1725018;82;21114;-77
2022/11/27 09:23:46;;;;;;;9.90;6.65;;;;;;;4.59;70.75;101584.27;1717175;83;21505;-77
2022/11/27 09:26:16;;;;;;;11.10;6.87;;;;;;;4.58;70.81;101585.80;1694421;84;21023;-78
2022/11/27 09:28:42;;;;;;;8.33;6.55;;;;;;;4.54;70.81;101588.00;1725311;82;21085;-78
2022/11/27 09:31:12;;;;;;;9.75;6.55;;;;;;;4.59;70.64;101584.77;1717791;83;21055;-78
2022/11/27 09:33:40;;;;;;;10.40;6.80;;;;;;;4.65;70.42;101581.36;1676579;84;20960;-77
2022/11/27 09:36:12;;;;;;;12.20;7.25;;;;;;;4.65;70.35;101584.82;1694836;84;21013;-77
2022/11/27 09:38:38;;;;;;;10.23;6.72;;;;;;;4.64;70.33;101588.48;1688568;85;21000;-75
2022/11/27 09:41:37;;;;;;;10.55;7.10;;;;;;;4.63;70.29;101579.41;1696028;83;21100;-76
2022/11/27 09:44:30;;;;;;;10.35;7.00;;;;;;;4.63;70.34;101583.38;1715523;82;20994;-78
2022/11/27 09:47:11;;;;;;;9.18;6.60;;;;;;;4.65;70.31;101588.80;1725023;83;21148;-77
2022/11/27 09:49:46;;;;;;;9.20;6.72;;;;;;;4.61;70.27;101584.91;1706607;82;20978;-77
2022/11/27 09:52:25;;;;;;;10.50;6.78;;;;;;;4.61;70.35;101584.09;1724944;83;21001;-77
2022/11/27 09:55:03;;;;;;;8.45;6.33;;;;;;;4.60;70.34;101583.24;1718012;83;21007;-77
2022/11/27 09:57:34;;;;;;;8.95;6.50;;;;;;;4.61;70.36;101582.77;1725154;82;21477;-77
2022/11/27 10:00:06;;;;;;;9.15;6.42;;;;;;;4.59;70.34;101582.94;1717223;83;21357;-77
2022/11/27 10:02:33;;;;;;;8.10;6.08;;;;;;;4.57;70.34;101581.48;1725267;82;21029;-77
2022/11/27 10:05:02;;;;;;;9.80;6.90;;;;;;;4.59;70.39;101586.91;1717757;83;21466;-77
2022/11/27 13:30:24;;;;;;;10.60;8.37;;;;;;;4.08;82.31;101561.12;1798199;79;22745;-69
2022/11/27 13:32:58;;;;;;;10.63;7.90;;;;;;;3.99;81.45;101559.14;1757105;81;21233;-69
2022/11/27 13:35:38;;;;;;;10.25;8.23;;;;;;;4.02;81.00;101560.59;1757325;80;21235;-69
2022/11/27 13:38:21;;;;;;;9.14;7.27;;;;;;;4.00;80.41;101561.58;1624216;80;10000082;-69
2022/11/27 13:40:51;;;;;;;10.58;8.23;;;;;;;4.02;79.97;101560.59;1632862;80;10000136;-69
2022/11/27 13:43:43;;;;;;;12.58;8.83;;;;;;;4.02;79.35;101570.66;1738339;81;21084;-69
2022/11/27 13:46:26;;;;;;;11.40;8.23;;;;;;;3.97;79.04;101570.39;1745218;81;21091;-71
2022/11/27 13:49:02;;;;;;;11.03;8.23;;;;;;;4.00;78.92;101564.22;1737111;81;21459;-69
2022/11/27 13:51:36;;;;;;;10.10;7.15;;;;;;;4.03;78.68;101566.19;1736651;80;21486;-69
2022/11/27 13:54:18;;;;;;;11.83;8.20;;;;;;;4.06;78.49;101562.66;1727337;81;21053;-70
2022/11/27 13:56:45;;;;;;;10.40;7.97;;;;;;;4.07;78.19;101566.11;1758177;80;21273;-69
2022/11/27 13:59:23;;;;;;;10.55;8.10;;;;;;;4.12;78.12;101572.98;1734379;81;21047;-70
2022/11/27 14:02:00;;;;;;;11.60;8.68;;;;;;;4.15;77.88;101573.94;1752688;81;21042;-70
2022/11/27 14:04:27;;;;;;;15.23;9.88;;;;;;;4.18;77.75;101564.30;1735059;81;21522;-69
2022/11/27 14:07:02;;;;;;;12.78;9.73;;;;;;;4.22;77.53;101569.52;1752426;80;21031;-68
2022/11/27 14:09:37;;;;;;;13.17;9.20;;;;;;;4.22;77.25;101573.48;1624218;80;10000380;-69
2022/11/27 14:12:24;;;;;;;11.48;7.80;;;;;;;4.20;77.00;101571.52;1748010;80;21027;-69
2022/11/27 14:15:07;;;;;;;10.13;7.67;;;;;;;4.19;76.82;101573.35;1731935;81;21180;-68
2022/11/27 14:17:40;;;;;;;9.65;6.97;;;;;;;4.22;76.73;101570.33;1733672;81;21534;-69
2022/11/27 14:20:18;;;;;;;8.00;6.50;;;;;;;4.22;76.48;101566.88;1735935;81;21240;-69
2022/11/27 14:22:57;;;;;;;9.73;7.33;;;;;;;4.21;76.34;101568.70;1702174;83;21098;-69
2022/11/27 14:25:29;;;;;;;8.50;6.47;;;;;;;4.21;76.21;101567.38;1710141;83;20980;-69
2022/11/27 14:28:01;;;;;;;;;;;;;;;4.22;76.08;101568.20;1720274;83;21523;-69
2022/11/27 14:30:42;;;;;;;8.40;6.58;;;;;;;4.20;75.92;101570.20;1675063;84;20164;-71
2022/11/27 14:33:22;;;;;;;9.05;6.47;;;;;;;4.20;75.87;101576.81;1687538;84;21109;-69
2022/11/27 14:36:03;;;;;;;9.08;6.00;;;;;;;4.22;75.82;101578.27;1702567;84;21508;-70
2022/11/27 14:38:31;;;;;;;10.00;6.95;;;;;;;4.02;76.03;101579.09;1679250;84;21051;-70
2022/11/27 14:41:10;;;;;;;9.30;7.15;;;;;;;3.74;76.74;101587.22;1674374;85;21084;-70
2022/11/27 14:43:37;;;;;;;9.33;7.20;;;;;;;3.66;76.96;101589.18;1674588;84;21040;-70
2022/11/27 14:46:05;;;;;;;9.68;7.15;;;;;;;3.63;77.12;101593.51;1680078;84;21109;-70
2022/11/27 15:00:20;;;;;;;9.93;7.10;;;;;;;4.11;76.54;101582.72;1764523;80;23302;-73
2022/11/27 15:02:48;;;;;;;9.10;6.80;;;;;;;4.05;76.47;101584.82;1758709;81;21667;-73
2022/11/27 15:05:23;;;;;;;9.35;6.83;;;;;;;4.03;76.48;101582.05;1756960;80;21208;-73
2022/11/27 15:07:51;;;;;;;8.95;7.22;;;;;;;3.98;76.36;101578.63;1743013;81;21178;-73
2022/11/27 15:10:35;;;;;;;10.63;7.40;;;;;;;3.94;76.35;101576.05;1790777;80;20958;-74
2022/11/27 15:13:02;;;;;;;8.75;6.75;;;;;;;3.91;76.36;101571.95;1783865;80;21065;-73
2022/11/27 15:15:33;;;;;;;8.98;6.65;;;;;;;3.90;76.41;101576.93;1737669;81;21585;-76
2022/11/27 15:18:05;;;;;;;10.05;6.83;;;;;;;3.89;76.40;101583.74;1768258;80;21185;-73
2022/11/27 15:20:41;;;;;;;8.63;7.00;;;;;;;3.90;76.40;101582.22;1750228;81;21042;-73
2022/11/27 15:23:18;;;;;;;10.68;7.05;;;;;;;3.90;76.38;101575.61;1772580;80;21061;-73
2022/11/27 15:25:52;;;;;;;9.68;7.28;;;;;;;3.91;76.38;101571.95;1729981;81;21046;-74
2022/11/27 15:28:37;;;;;;;9.85;7.10;;;;;;;3.89;76.29;101571.84;1757001;81;21744;-74
2022/11/27 15:31:31;;;;;;;10.00;6.90;;;;;;;3.87;76.22;101572.52;1731688;81;21309;-74
2022/11/27 15:34:19;;;;;;;12.85;7.60;;;;;;;3.82;76.11;101577.06;1755859;80;21049;-74
2022/11/27 15:37:02;;;;;;;9.58;6.17;;;;;;;3.77;75.95;101579.44;1747254;81;21169;-73
2022/11/27 15:39:50;;;;;;;8.10;6.05;;;;;;;3.70;75.98;101576.72;1756815;80;21054;-75
2022/11/27 15:42:18;;;;;;;9.43;6.35;;;;;;;3.67;75.99;101575.77;1724452;82;21545;-74
2022/11/27 15:44:45;;;;;;;9.63;6.97;;;;;;;3.67;76.00;101583.69;1709728;82;21322;-74
2022/11/27 15:47:29;;;;;;;9.68;7.53;;;;;;;3.67;75.99;101580.23;1721381;83;21202;-74
2022/11/27 15:49:57;;;;;;;9.13;6.90;;;;;;;3.66;75.98;101586.03;1726759;81;21537;-74
2022/11/27 15:52:24;;;;;;;9.10;6.30;;;;;;;3.67;75.98;101577.59;1750172;81;21074;-74
2022/11/27 15:54:54;;;;;;;7.95;5.62;;;;;;;3.67;75.97;101574.45;1744228;81;21011;-75
2022/11/27 15:57:21;;;;;;;8.43;5.85;;;;;;;3.65;75.84;101574.31;1611914;81;10000119;-74
2022/11/27 15:59:47;;;;;;;9.00;6.12;;;;;;;3.61;75.82;101572.55;1743174;81;21045;-75
2022/11/27 16:02:13;;;;;;;7.83;5.92;;;;;;;3.59;75.80;101577.72;1724852;81;21650;-75
2022/11/27 16:04:41;;;;;;;7.75;5.58;;;;;;;3.58;75.85;101575.55;1757572;81;22169;-75
2022/11/27 16:07:07;;;;;;;7.62;5.55;;;;;;;3.57;75.82;101574.44;1724929;81;21209;-74
2022/11/27 16:09:43;;;;;;;8.29;6.22;;;;;;;3.55;75.81;101575.92;1731665;80;10000152;-75
2022/11/27 16:12:11;;;;;;;8.53;5.62;;;;;;;3.53;76.30;101577.44;1720524;81;21034;-75
2022/11/27 16:14:37;;;;;;;8.03;6.03;;;;;;;3.55;75.80;101579.07;1751103;80;21513;-75
2022/11/27 16:17:04;;;;;;;8.15;5.83;;;;;;;3.56;75.79;101580.23;1720094;81;21058;-75
2022/11/27 16:19:32;;;;;;;7.08;5.53;;;;;;;3.56;75.77;101587.33;1755486;80;21397;-75
2022/11/27 16:22:00;;;;;;;8.45;5.90;;;;;;;3.57;75.79;101585.81;1752342;80;21003;-75
2022/11/27 16:24:26;;;;;;;8.30;6.25;;;;;;;3.56;75.75;101597.39;1723192;81;21106;-74
2022/11/27 16:26:53;;;;;;;8.03;6.25;;;;;;;3.51;75.71;101600.57;1742298;80;21068;-73
2022/11/27 16:29:20;;;;;;;8.23;6.22;;;;;;;3.51;75.81;101601.08;1734991;81;21149;-73
2022/11/27 16:31:46;;;;;;;8.55;6.28;;;;;;;3.48;75.79;101598.30;1735470;82;21337;-74
2022/11/27 16:34:15;;;;;;;8.65;6.20;;;;;;;3.47;75.85;101595.85;1727487;80;21041;-74
2022/11/27 16:36:45;;;;;;;8.48;6.40;;;;;;;3.52;75.96;101595.63;1723756;83;21066;-74
2022/11/27 16:39:13;;;;;;;8.93;5.92;;;;;;;3.60;76.02;101597.34;1755664;81;21618;-75
2022/11/27 16:41:39;;;;;;;9.05;6.25;;;;;;;3.65;75.97;101596.77;1756803;80;21066;-75
2022/11/27 16:44:13;;;;;;;7.83;5.42;;;;;;;3.70;75.97;101597.04;1724307;83;21154;-74
2022/11/27 16:46:40;;;;;;;8.50;5.50;;;;;;;3.72;75.90;101596.37;1754992;80;21041;-74
2022/11/27 16:49:07;;;;;;;9.48;6.08;;;;;;;3.75;75.82;101599.92;1714693;83;21074;-74
2022/11/27 16:51:35;;;;;;;7.35;5.37;;;;;;;3.75;75.76;101597.28;1752537;81;21125;-76
2022/11/27 16:54:04;;;;;;;9.05;6.35;;;;;;;3.76;75.64;101602.91;1698788;83;21058;-75
2022/11/27 16:56:32;;;;;;;8.98;6.00;;;;;;;3.73;75.56;101601.95;1729082;81;21734;-75
2022/11/27 16:58:58;;;;;;;9.00;6.58;;;;;;;3.71;75.43;101604.77;1754820;80;20979;-75
2022/11/27 17:01:29;;;;;;;9.63;7.12;;;;;;;3.68;75.30;101601.68;1724564;81;21667;-76
2022/11/27 17:03:56;;;;;;;9.55;6.80;;;;;;;3.63;75.26;101604.08;1745782;81;21038;-75
2022/11/27 17:06:28;;;;;;;10.63;7.37;;;;;;;3.57;75.22;101612.23;1722368;83;21054;-75
2022/11/27 17:08:58;;;;;;;9.08;7.00;;;;;;;3.51;75.16;101614.28;1749905;81;21018;-75
2022/11/27 17:11:28;;;;;;;9.15;6.47;;;;;;;3.49;75.22;101618.45;1720933;83;21097;-76
2022/11/27 17:13:57;;;;;;;10.72;6.70;;;;;;;3.46;75.20;101614.03;1749457;81;21603;-76
2022/11/27 17:16:24;;;;;;;9.65;6.92;;;;;;;3.42;75.19;101614.06;1722287;83;21097;-76
2022/11/27 17:18:51;;;;;;;11.35;7.08;;;;;;;3.38;75.12;101621.53;1738765;81;21119;-75
2022/11/27 17:21:26;;;;;;;9.50;6.25;;;;;;;3.40;75.25;101613.45;1726659;83;21970;-75
2022/11/27 17:23:59;;;;;;;9.68;6.70;;;;;;;3.45;75.15;101613.19;1745171;81;21033;-75
2022/11/27 17:26:31;;;;;;;8.28;6.17;;;;;;;3.37;75.01;101617.77;1743729;80;21120;-75
2022/11/27 17:28:58;;;;;;;8.80;6.30;;;;;;;3.34;75.12;101618.13;1721766;82;21068;-76
2022/11/27 17:31:31;;;;;;;11.15;7.12;;;;;;;3.34;75.17;101604.93;1718354;83;21094;-75
2022/11/27 17:33:57;;;;;;;8.95;6.60;;;;;;;3.36;75.22;101616.14;1721661;82;21240;-76
2022/11/27 17:36:25;;;;;;;9.63;7.10;;;;;;;3.42;75.26;101620.66;1723516;81;21126;-75
2022/11/27 17:38:52;;;;;;;8.80;6.40;;;;;;;3.41;75.23;101609.28;1753794;81;21074;-75
2022/11/27 17:41:19;;;;;;;8.63;6.65;;;;;;;3.38;75.17;101608.33;1720936;81;21133;-75
2022/11/27 17:43:46;;;;;;;9.30;6.50;;;;;;;3.36;75.21;101606.39;1723614;81;21101;-76
2022/11/27 17:46:20;;;;;;;10.03;7.03;;;;;;;3.40;75.32;101606.84;1725223;81;21150;-75
2022/11/27 17:48:49;;;;;;;10.18;6.55;;;;;;;3.47;75.38;101605.91;1744968;81;21570;-75
2022/11/27 17:51:17;;;;;;;8.30;5.90;;;;;;;3.57;75.45;101603.49;1750508;81;21286;-77
2022/11/27 17:53:45;;;;;;;9.80;6.15;;;;;;;3.62;75.31;101608.55;1723639;83;21177;-75
2022/11/27 17:56:14;;;;;;;7.75;5.78;;;;;;;3.65;75.24;101608.18;1757727;81;21081;-75
2022/11/27 17:58:41;;;;;;;9.25;6.42;;;;;;;3.70;75.18;101610.25;1720815;83;21225;-75
2022/11/27 18:01:15;;;;;;;8.85;6.85;;;;;;;3.67;74.97;101611.44;1719629;81;21093;-75
2022/11/27 18:03:45;;;;;;;7.87;6.03;;;;;;;3.71;75.01;101611.88;1749610;80;21058;-75
2022/11/27 18:06:16;;;;;;;7.20;5.50;;;;;;;3.72;74.93;101601.65;1723197;83;21090;-75
2022/11/27 18:08:47;;;;;;;8.50;5.95;;;;;;;3.74;74.88;101606.23;1731480;81;21631;-76
2022/11/27 18:24:17;;;;;;;8.20;6.20;;;;;;;4.08;74.03;101604.75;1736005;80;23448;-72
2022/11/27 18:26:46;;;;;;;11.30;7.92;;;;;;;3.99;73.80;101605.39;1748831;82;21074;-73
2022/11/27 18:29:12;;;;;;;10.60;8.05;;;;;;;3.92;73.71;101611.94;1738913;82;21686;-73
2022/11/27 18:31:39;;;;;;;9.83;6.67;;;;;;;3.84;73.70;101606.75;1726990;82;20958;-73
2022/11/27 18:34:05;;;;;;;8.85;6.30;;;;;;;3.82;73.80;101604.81;1734505;82;22114;-72
2022/11/27 18:36:33;;;;;;;6.70;5.25;;;;;;;3.75;73.77;101606.06;1725008;81;21619;-72
2022/11/27 18:39:01;;;;;;;7.72;5.92;;;;;;;3.74;73.86;101611.52;1739301;81;21093;-73
2022/11/27 18:41:27;;;;;;;12.05;7.85;;;;;;;3.74;73.88;101614.16;1723623;81;21365;-72
2022/11/27 18:43:54;;;;;;;9.35;6.30;;;;;;;3.71;73.89;101610.56;1722897;81;21078;-71
2022/11/27 18:46:22;;;;;;;6.47;5.20;;;;;;;3.67;73.84;101611.94;1739356;81;20951;-71
2022/11/27 18:48:49;;;;;;;7.17;5.22;;;;;;;3.58;73.79;101607.26;1738402;81;21101;-71
2022/11/27 18:51:20;;;;;;;6.75;4.85;;;;;;;3.55;73.90;101612.09;1737102;81;21053;-71
2022/11/27 18:53:48;;;;;;;7.35;5.17;;;;;;;3.52;73.90;101607.52;1714478;82;21205;-73
2022/11/27 18:56:21;;;;;;;7.58;5.00;;;;;;;3.47;73.95;101602.45;1681647;82;21074;-72
2022/11/27 18:58:48;;;;;;;7.00;4.55;;;;;;;3.47;73.98;101606.42;1707933;82;21611;-72
2022/11/27 19:01:19;;;;;;;6.78;4.90;;;;;;;3.46;73.99;101608.24;1688727;83;21113;-73
2022/11/27 19:03:46;;;;;;;8.00;5.72;;;;;;;3.43;74.13;101609.12;1705317;82;21081;-73
2022/11/27 19:06:15;;;;;;;9.38;6.15;;;;;;;3.45;74.21;101602.63;1708019;82;21117;-73
2022/11/27 19:08:42;;;;;;;8.58;6.30;;;;;;;3.47;74.20;101603.78;1709303;83;20998;-72
2022/11/27 19:11:15;;;;;;;8.35;5.72;;;;;;;3.44;74.11;101604.95;1683257;83;21481;-73
2022/11/27 19:13:41;;;;;;;;;;;;;;;3.41;74.21;101601.36;1593303;83;10000418;-71
2022/11/27 19:16:18;;;;;;;9.83;6.80;;;;;;;3.40;74.20;101602.38;1708501;83;20522;-73
2022/11/27 19:18:45;;;;;;;9.20;6.58;;;;;;;3.40;74.30;101604.20;1709333;83;21042;-73
2022/11/27 19:21:19;;;;;;;10.15;6.95;;;;;;;3.40;74.39;101599.73;1710169;82;20966;-74
2022/11/27 19:23:46;;;;;;;9.58;6.85;;;;;;;3.45;74.43;101610.55;1691334;84;20991;-71
2022/11/27 19:26:20;;;;;;;10.95;7.20;;;;;;;3.43;74.45;101603.33;1709590;82;21077;-71
2022/11/27 19:28:53;;;;;;;10.10;7.20;;;;;;;3.49;74.56;101604.42;1692437;82;21763;-73
2022/11/27 19:31:19;;;;;;;;;;;;;;;3.52;74.47;101612.80;1704585;84;21623;-71
2022/11/27 19:33:54;;;;;;;9.85;6.90;;;;;;;3.50;74.38;101606.86;1715167;82;20522;-72
2022/11/27 19:36:22;;;;;;;10.78;7.33;;;;;;;3.45;74.29;101605.27;1708898;83;21584;-72
2022/11/27 19:38:56;;;;;;;10.38;7.42;;;;;;;3.43;74.31;101603.83;1707687;83;21014;-71
2022/11/27 19:41:23;;;;;;;9.20;7.00;;;;;;;3.41;74.34;101607.96;1708492;82;21193;-72
2022/11/27 19:43:49;;;;;;;9.55;6.67;;;;;;;3.42;74.35;101607.45;1708851;83;20954;-71
2022/11/27 19:46:24;;;;;;;8.73;6.42;;;;;;;3.43;74.34;101612.58;1708611;84;20950;-72
2022/11/27 19:49:03;;;;;;;8.63;6.20;;;;;;;3.41;74.21;101615.89;1717907;83;21101;-73
2022/11/27 19:51:35;;;;;;;9.58;6.78;;;;;;;3.40;74.20;101616.09;1711933;82;21113;-72
2022/11/27 19:54:03;;;;;;;9.98;7.10;;;;;;;3.40;74.16;101623.50;1704604;84;21201;-71
2022/11/27 19:56:33;;;;;;;8.73;6.50;;;;;;;3.38;74.03;101622.04;1717723;82;21672;-71
2022/11/27 19:59:00;;;;;;;8.23;6.33;;;;;;;3.40;74.13;101621.37;1717982;83;21026;-72
2022/11/27 20:01:27;;;;;;;9.35;6.72;;;;;;;3.43;74.05;101615.72;1718466;83;21020;-73
2022/11/27 20:03:54;;;;;;;9.95;6.90;;;;;;;3.39;74.03;101619.23;1718999;82;21077;-72
2022/11/27 20:06:23;;;;;;;9.00;6.40;;;;;;;3.35;74.07;101616.61;1716724;83;21114;-73
2022/11/27 20:08:51;;;;;;;7.45;5.78;;;;;;;3.33;74.08;101622.60;1707506;82;21096;-73
2022/11/27 20:11:21;;;;;;;8.73;5.70;;;;;;;3.36;74.12;101624.06;1707178;84;21129;-72
2022/11/27 20:13:48;;;;;;;7.60;5.40;;;;;;;3.34;74.09;101617.63;1707060;83;21588;-72
2022/11/27 20:16:20;;;;;;;8.00;5.60;;;;;;;3.35;73.99;101619.77;1708441;84;21141;-73
2022/11/27 20:18:48;;;;;;;7.83;5.22;;;;;;;3.33;73.97;101619.96;1708642;83;21749;-72
2022/11/27 20:21:21;;;;;;;7.10;4.95;;;;;;;3.39;74.03;101623.19;1699519;82;21560;-73
2022/11/27 20:23:49;;;;;;;6.20;4.42;;;;;;;3.43;74.02;101615.72;1704921;84;21590;-72
2022/11/27 20:26:19;;;;;;;6.60;4.72;;;;;;;3.44;73.79;101616.03;1676084;84;21038;-72
2022/11/27 20:28:45;;;;;;;5.47;3.92;;;;;;;3.41;73.64;101628.28;1706131;82;21105;-73
2022/11/27 20:31:17;;;;;;;5.87;4.10;;;;;;;3.43;73.68;101626.28;1726944;82;21100;-73
2022/11/27 20:33:43;;;;;;;5.45;4.00;;;;;;;3.45;73.56;101626.39;1707906;83;21204;-73
2022/11/27 20:36:14;;;;;;;6.20;4.20;;;;;;;3.42;73.35;101614.06;1708537;82;21077;-73
2022/11/27 20:38:41;;;;;;;5.97;4.03;;;;;;;3.45;73.19;101617.15;1708522;84;20990;-73
2022/11/27 20:41:09;;;;;;;6.92;4.47;;;;;;;3.44;73.22;101618.67;1712999;82;20974;-73
2022/11/27 20:43:37;;;;;;;6.75;4.40;;;;;;;3.43;73.06;101616.53;1707991;84;21172;-73
2022/11/27 20:46:06;;;;;;;6.47;4.60;;;;;;;3.44;72.98;101619.48;1708179;84;21069;-73
2022/11/27 20:48:33;;;;;;;6.65;4.30;;;;;;;3.48;72.95;101622.57;1693299;82;21058;-73
2022/11/27 20:51:09;;;;;;;7.85;4.83;;;;;;;3.52;72.87;101624.69;1718974;82;21101;-73
2022/11/27 20:53:37;;;;;;;6.62;4.25;;;;;;;3.52;72.85;101631.29;1697973;82;21104;-73
2022/11/27 20:56:06;;;;;;;6.70;4.47;;;;;;;3.53;72.84;101622.35;1699976;82;21711;-73
2022/11/27 20:58:35;;;;;;;6.00;4.10;;;;;;;3.59;72.80;101633.20;1712843;81;21572;-73
2022/11/27 21:01:30;;;;;;;7.00;4.30;;;;;;;3.62;72.71;101632.80;1699930;84;21074;-73
2022/11/27 21:03:59;;;;;;;7.30;4.67;;;;;;;3.67;72.64;101635.22;1699496;82;21058;-73
2022/11/27 21:06:28;;;;;;;7.70;4.55;;;;;;;3.74;72.57;101633.97;1703273;82;21011;-73
2022/11/27 21:08:54;;;;;;;6.95;4.35;;;;;;;3.77;72.45;101638.89;1736771;82;21738;-73
2022/11/27 21:11:24;;;;;;;6.95;4.40;;;;;;;3.78;72.28;101644.98;1691539;84;20966;-73
2022/11/27 21:14:04;;;;;;;6.62;4.37;;;;;;;3.78;72.20;101644.48;1683199;84;21163;-73
2022/11/27 21:16:34;;;;;;;8.35;4.28;;;;;;;3.80;72.08;101645.12;1721421;82;21033;-73
2022/11/27 21:19:06;;;;;;;6.58;4.20;;;;;;;3.79;72.00;101640.86;1718527;83;21219;-73
2022/11/27 21:21:33;;;;;;;6.95;4.35;;;;;;;3.82;71.98;101637.00;1706466;84;21565;-73
2022/11/27 21:24:00;;;;;;;7.08;4.50;;;;;;;3.82;71.90;101643.13;1709130;84;21081;-74
2022/11/27 21:26:27;;;;;;;6.17;4.30;;;;;;;3.82;71.77;101643.13;1705613;82;21619;-74
2022/11/27 21:28:55;;;;;;;5.97;4.03;;;;;;;3.80;71.74;101638.52;1705661;84;21105;-73
2022/11/27 21:31:24;;;;;;;7.17;4.90;;;;;;;3.79;71.50;101640.86;1708500;83;21153;-73
2022/11/27 21:33:58;;;;;;;6.58;4.35;;;;;;;3.72;71.41;101643.42;1708376;82;22288;-73
2022/11/27 21:36:28;;;;;;;5.80;4.10;;;;;;;3.69;71.45;101644.30;1711144;82;21113;-73
2022/11/27 21:38:57;;;;;;;6.17;4.20;;;;;;;3.64;71.39;101638.73;1699708;82;21066;-73
2022/11/27 21:41:25;;;;;;;5.65;3.90;;;;;;;3.59;71.38;101643.77;1706033;84;21043;-73
2022/11/27 21:43:57;;;;;;;6.33;3.87;;;;;;;3.51;71.16;101651.27;1711805;82;21006;-73
2022/11/27 21:46:25;;;;;;;5.72;3.95;;;;;;;3.43;71.22;101650.05;1710977;82;21196;-73
2022/11/27 21:48:56;;;;;;;6.20;3.60;;;;;;;3.41;71.36;101653.36;1724613;83;21066;-73
2022/11/27 21:51:25;;;;;;;5.60;3.83;;;;;;;3.43;71.51;101648.23;1672827;82;21021;-73
2022/11/27 21:53:53;;;;;;;5.22;3.60;;;;;;;3.47;71.49;101647.36;1695755;83;21129;-73
2022/11/27 21:56:21;;;;;;;5.47;3.62;;;;;;;3.42;71.34;101657.16;1706635;82;21077;-74
2022/11/27 21:58:48;;;;;;;5.45;3.70;;;;;;;3.41;71.38;101652.86;1720339;82;21236;-73
2022/11/27 22:01:18;;;;;;;5.42;3.27;;;;;;;3.41;71.35;101656.00;1712316;82;21100;-73
2022/11/27 22:03:53;;;;;;;4.78;3.20;;;;;;;3.37;71.32;101655.55;1717984;83;21594;-73
2022/11/27 22:06:20;;;;;;;5.95;4.03;;;;;;;3.35;71.38;101658.05;1708394;83;21061;-71
2022/11/27 22:08:48;;;;;;;5.53;3.77;;;;;;;3.33;71.42;101654.80;1708404;84;21093;-72
2022/11/27 22:11:18;;;;;;;5.60;3.77;;;;;;;3.33;71.51;101652.16;1711743;82;21142;-71
2022/11/27 22:13:47;;;;;;;6.95;3.60;;;;;;;3.31;71.52;101654.95;1708605;83;20967;-71
2022/11/27 22:16:18;;;;;;;5.53;3.58;;;;;;;3.30;71.57;101654.65;1690935;82;21002;-71
2022/11/27 22:18:45;;;;;;;5.10;3.83;;;;;;;3.25;71.38;101657.81;1690434;82;21128;-71
2022/11/27 22:21:12;;;;;;;5.33;3.83;;;;;;;3.18;71.34;101654.77;1710446;84;20974;-71
2022/11/27 22:23:39;;;;;;;6.08;3.90;;;;;;;3.21;71.55;101655.73;1706732;82;21187;-71
2022/11/27 22:26:10;;;;;;;5.85;3.95;;;;;;;3.28;71.55;101653.49;1684320;84;21114;-71
2022/11/27 22:28:36;;;;;;;5.20;3.50;;;;;;;3.36;71.43;101655.25;1648838;85;21434;-71
2022/11/27 22:31:09;;;;;;;5.47;3.65;;;;;;;3.50;71.19;101654.41;1681880;85;21069;-71
2022/11/27 22:33:38;;;;;;;5.55;3.83;;;;;;;3.57;71.09;101652.36;1692692;82;21454;-72
2022/11/27 22:36:17;;;;;;;5.70;3.72;;;;;;;3.55;71.09;101651.20;1655267;85;21212;-72